Time;durP1;ratioP1;P1;durP2;ratioP2;P2;SDS_P1;SDS_P2;PMS_P1;PMS_P2;Temp;Humidity;BMP_temperature;BMP_pressure;BME280_temperature;BME280_humidity;BME280_pressure;Samples;Min_cycle;Max_cycle;Signal;HPM_P1;HPM_P2
2022/12/18 00:00:41;;;;;;;;;;;-6.80;99.90;;;;;;5079925;28;20328;-80
2022/12/18 00:03:07;;;;;;;;;;;-6.90;99.90;;;;;;5078805;28;19913;-80
2022/12/18 00:05:33;;;;;;;;;;;-7.00;99.90;;;;;;5077809;28;19909;-80
2022/12/18 00:07:58;;;;;;;;;;;-7.00;99.90;;;;;;5077693;28;19912;-80
2022/12/18 00:10:24;;;;;;;;;;;-7.00;99.90;;;;;;5076489;28;19908;-80
2022/12/18 00:12:49;;;;;;;;;;;-7.00;99.90;;;;;;5076502;28;19913;-80
2022/12/18 00:15:15;;;;;;;;;;;-7.10;99.90;;;;;;5077908;28;19909;-80
2022/12/18 00:17:40;;;;;;;;;;;-7.00;99.90;;;;;;5077535;28;20261;-80
2022/12/18 00:20:06;;;;;;;;;;;-7.00;99.90;;;;;;5077716;28;19982;-80
2022/12/18 00:22:32;;;;;;;;;;;-7.00;99.90;;;;;;5077466;28;19974;-80
2022/12/18 00:24:57;;;;;;;;;;;-7.00;99.90;;;;;;5076622;28;19940;-80
2022/12/18 00:27:23;;;;;;;;;;;-6.90;99.90;;;;;;5077969;28;19920;-80
2022/12/18 00:29:49;;;;;;;;;;;-6.90;99.90;;;;;;5076361;28;19913;-80
2022/12/18 00:32:14;;;;;;;;;;;-6.90;99.90;;;;;;5076167;28;20397;-80
2022/12/18 00:34:40;;;;;;;;;;;-6.90;99.90;;;;;;5077051;28;20402;-80
2022/12/18 00:37:05;;;;;;;;;;;-6.90;99.90;;;;;;5076703;28;19912;-80
2022/12/18 00:39:31;;;;;;;;;;;-6.90;99.90;;;;;;5076325;28;19916;-80
2022/12/18 00:44:40;;;;;;;;;;;-6.90;99.90;;;;;;5077664;28;19924;-80
2022/12/18 00:47:06;;;;;;;;;;;-6.90;99.90;;;;;;5076048;28;19913;-80
2022/12/18 00:49:31;;;;;;;;;;;-7.00;99.90;;;;;;5076319;28;19923;-80
2022/12/18 00:51:57;;;;;;;;;;;-7.00;99.90;;;;;;5059588;28;19913;-80
2022/12/18 00:54:23;;;;;;;;;;;-7.00;99.90;;;;;;5077357;28;19917;-80
2022/12/18 00:56:48;;;;;;;;;;;-7.10;99.90;;;;;;5077717;28;19912;-80
2022/12/18 00:59:14;;;;;;;;;;;-7.10;99.90;;;;;;5077217;28;19912;-80
2022/12/18 01:01:39;;;;;;;;;;;-7.10;99.90;;;;;;5076621;28;19909;-80
2022/12/18 01:04:05;;;;;;;;;;;-7.10;99.90;;;;;;5076295;28;19917;-80
2022/12/18 01:06:31;;;;;;;;;;;-7.10;99.90;;;;;;5075417;28;20331;-80
2022/12/18 01:08:56;;;;;;;;;;;-7.10;99.90;;;;;;5075528;28;19951;-80
2022/12/18 01:11:22;;;;;;;;;;;-7.10;99.90;;;;;;5075339;28;19947;-80
2022/12/18 01:13:48;;;;;;;;;;;-7.10;99.90;;;;;;5075298;28;19916;-80
2022/12/18 01:16:14;;;;;;;;;;;-7.20;99.90;;;;;;5070503;28;19909;-79
2022/12/18 01:18:40;;;;;;;;;;;-7.20;99.90;;;;;;5075012;28;19909;-79
2022/12/18 01:21:10;;;;;;;;;;;-7.20;99.90;;;;;;5074872;28;20387;-79
2022/12/18 01:23:35;;;;;;;;;;;-7.20;99.90;;;;;;5073900;28;19919;-80
2022/12/18 01:26:05;;;;;;;;;;;-7.30;99.90;;;;;;5058802;28;19913;-80
2022/12/18 01:28:31;;;;;;;;;;;-7.40;99.90;;;;;;5075312;28;19909;-80
2022/12/18 01:30:56;;;;;;;;;;;-7.40;99.90;;;;;;5076217;28;19912;-80
2022/12/18 01:33:22;;;;;;;;;;;-7.30;99.90;;;;;;5075305;28;19923;-80
2022/12/18 01:35:47;;;;;;;;;;;-7.40;99.90;;;;;;5075245;28;19959;-80
2022/12/18 01:38:13;;;;;;;;;;;-7.40;99.90;;;;;;5075278;28;19912;-80
2022/12/18 01:40:38;;;;;;;;;;;-7.40;99.90;;;;;;5058557;28;19912;-80
2022/12/18 01:43:04;;;;;;;;;;;-7.40;99.90;;;;;;5076723;28;19920;-79
2022/12/18 01:45:31;;;;;;;;;;;-7.50;99.90;;;;;;5075418;28;19913;-80
2022/12/18 01:48:08;;;;;;;;;;;-7.60;99.90;;;;;;5074851;28;19909;-80
2022/12/18 01:50:43;;;;;;;;;;;-7.60;99.90;;;;;;5075159;28;20309;-80
2022/12/18 01:53:11;;;;;;;;;;;-7.60;99.90;;;;;;5073960;28;19923;-80
2022/12/18 01:55:39;;;;;;;;;;;-7.60;99.90;;;;;;5075178;28;19916;-80
2022/12/18 01:58:05;;;;;;;;;;;-7.60;99.90;;;;;;5069780;28;19995;-80
2022/12/18 02:00:31;;;;;;;;;;;-7.50;99.90;;;;;;5053855;28;19948;-80
2022/12/18 02:02:56;;;;;;;;;;;-7.50;99.90;;;;;;5054787;28;19917;-80
2022/12/18 02:05:44;;;;;;;;;;;-7.50;99.90;;;;;;5060744;28;19917;-80
2022/12/18 02:08:21;;;;;;;;;;;-7.50;99.90;;;;;;5056184;28;19980;-78
2022/12/18 02:11:02;;;;;;;;;;;-7.50;99.90;;;;;;5065350;28;19948;-78
2022/12/18 02:13:39;;;;;;;;;;;-7.50;99.90;;;;;;5075417;28;19909;-78
2022/12/18 02:16:23;;;;;;;;;;;-7.50;99.90;;;;;;5069271;28;19909;-78
2022/12/18 02:18:51;;;;;;;;;;;-7.40;99.90;;;;;;5076027;28;20276;-78
2022/12/18 02:21:20;;;;;;;;;;;-7.50;99.90;;;;;;5076109;28;20007;-78
2022/12/18 02:24:14;;;;;;;;;;;-7.50;99.90;;;;;;5075870;28;19916;-78
2022/12/18 02:26:57;;;;;;;;;;;-7.60;99.90;;;;;;5070119;28;19908;-78
2022/12/18 02:29:29;;;;;;;;;;;-7.70;99.90;;;;;;5076243;28;19912;-78
2022/12/18 02:31:56;;;;;;;;;;;-7.70;99.90;;;;;;5076830;28;19916;-78
2022/12/18 02:34:24;;;;;;;;;;;-7.80;99.90;;;;;;5076539;28;19912;-78
2022/12/18 02:36:50;;;;;;;;;;;-7.80;99.90;;;;;;5076804;28;19909;-78
2022/12/18 02:39:17;;;;;;;;;;;-7.80;99.90;;;;;;5076702;28;19915;-78
2022/12/18 02:41:43;;;;;;;;;;;-7.90;99.90;;;;;;5076320;28;19916;-78
2022/12/18 02:44:10;;;;;;;;;;;-7.90;99.90;;;;;;5076096;28;19912;-78
2022/12/18 02:46:36;;;;;;;;;;;-7.90;99.90;;;;;;5075018;28;19909;-78
2022/12/18 02:49:22;;;;;;;;;;;-7.90;99.90;;;;;;5076090;28;19908;-78
2022/12/18 02:51:56;;;;;;;;;;;-7.90;99.90;;;;;;5091006;28;19958;-78
2022/12/18 02:54:35;;;;;;;;;;;-7.90;99.90;;;;;;5075565;28;19969;-78
2022/12/18 02:57:08;;;;;;;;;;;-7.90;99.90;;;;;;5072031;28;19995;-78
2022/12/18 02:59:38;;;;;;;;;;;-8.00;99.90;;;;;;5075598;28;19909;-78
2022/12/18 03:02:19;;;;;;;;;;;-8.10;99.90;;;;;;5075663;28;19908;-78
2022/12/18 03:04:49;;;;;;;;;;;-8.20;99.90;;;;;;5074248;28;20391;-78
2022/12/18 03:07:18;;;;;;;;;;;-8.20;99.90;;;;;;5075352;28;19993;-78
2022/12/18 03:09:44;;;;;;;;;;;-8.30;99.90;;;;;;5075136;28;19909;-78
2022/12/18 03:12:23;;;;;;;;;;;-8.30;99.90;;;;;;5075205;28;19912;-78
2022/12/18 03:14:58;;;;;;;;;;;-8.30;99.90;;;;;;5068310;28;19915;-78
2022/12/18 03:17:25;;;;;;;;;;;-8.40;99.90;;;;;;5062846;28;19931;-78
2022/12/18 03:19:51;;;;;;;;;;;-8.40;99.90;;;;;;5075132;28;19908;-78
2022/12/18 03:22:17;;;;;;;;;;;-8.50;99.90;;;;;;5074863;28;19996;-78
2022/12/18 03:24:44;;;;;;;;;;;-8.50;99.90;;;;;;5075468;28;19916;-77
2022/12/18 03:27:11;;;;;;;;;;;-8.50;99.90;;;;;;5074778;28;19913;-78
2022/12/18 03:29:40;;;;;;;;;;;-8.50;99.90;;;;;;5075044;28;20333;-78
2022/12/18 03:32:11;;;;;;;;;;;-8.50;99.90;;;;;;5073543;28;19909;-78
2022/12/18 03:34:38;;;;;;;;;;;-8.50;99.90;;;;;;5075261;28;20361;-78
2022/12/18 03:37:04;;;;;;;;;;;-8.50;99.90;;;;;;5073898;28;19909;-78
2022/12/18 03:39:30;;;;;;;;;;;-8.50;99.90;;;;;;5073866;28;19912;-78
2022/12/18 03:41:59;;;;;;;;;;;-8.50;99.90;;;;;;5075120;28;19995;-78
2022/12/18 03:44:25;;;;;;;;;;;-8.50;99.90;;;;;;5073185;28;19934;-78
2022/12/18 03:47:07;;;;;;;;;;;-8.50;99.90;;;;;;5061684;28;20406;-78
2022/12/18 03:49:51;;;;;;;;;;;-8.50;99.90;;;;;;5055215;28;19913;-78
2022/12/18 03:52:20;;;;;;;;;;;-8.50;99.90;;;;;;5061723;28;19909;-78
2022/12/18 03:54:46;;;;;;;;;;;-8.50;99.90;;;;;;5073462;28;19921;-78
2022/12/18 03:57:14;;;;;;;;;;;-8.60;99.90;;;;;;5074588;28;20058;-78
2022/12/18 03:59:40;;;;;;;;;;;-8.70;99.90;;;;;;5069686;28;19908;-77
2022/12/18 04:02:07;;;;;;;;;;;-8.70;99.90;;;;;;5073183;28;19934;-77
2022/12/18 04:04:34;;;;;;;;;;;-8.70;99.90;;;;;;5075043;28;19924;-78
2022/12/18 04:07:00;;;;;;;;;;;-8.70;99.90;;;;;;5074685;28;20003;-77
2022/12/18 04:09:25;;;;;;;;;;;-8.70;99.90;;;;;;5074877;28;19909;-78
2022/12/18 04:11:51;;;;;;;;;;;-8.80;99.90;;;;;;5074515;28;19908;-77
2022/12/18 04:14:17;;;;;;;;;;;-8.80;99.90;;;;;;5071606;28;19908;-78
2022/12/18 04:16:42;;;;;;;;;;;-8.80;99.90;;;;;;5053420;28;19917;-78
2022/12/18 04:19:08;;;;;;;;;;;-8.80;99.90;;;;;;5053257;28;19909;-78
2022/12/18 04:21:33;;;;;;;;;;;-8.80;99.90;;;;;;5053242;28;20361;-78
2022/12/18 04:23:59;;;;;;;;;;;-8.80;99.90;;;;;;5054673;28;19924;-78
2022/12/18 04:26:24;;;;;;;;;;;-8.80;99.90;;;;;;5036666;28;19912;-78
2022/12/18 04:28:50;;;;;;;;;;;-8.80;99.90;;;;;;5054966;28;20058;-78
2022/12/18 04:31:15;;;;;;;;;;;-8.80;99.90;;;;;;5054708;28;19913;-78
2022/12/18 04:33:41;;;;;;;;;;;-8.90;99.90;;;;;;5053593;28;19913;-78
2022/12/18 04:36:07;;;;;;;;;;;-9.00;99.90;;;;;;5052810;28;19960;-77
2022/12/18 04:38:32;;;;;;;;;;;-9.10;99.90;;;;;;5054377;28;19912;-77
2022/12/18 04:40:58;;;;;;;;;;;-9.20;99.90;;;;;;5056482;28;19962;-77
2022/12/18 04:43:23;;;;;;;;;;;-9.20;99.90;;;;;;5056409;28;20308;-78
2022/12/18 04:45:49;;;;;;;;;;;-9.20;99.90;;;;;;5072119;28;20305;-78
2022/12/18 04:48:15;;;;;;;;;;;-9.20;99.90;;;;;;5077774;28;19959;-78
2022/12/18 04:50:41;;;;;;;;;;;-9.20;99.90;;;;;;5077676;28;19916;-78
2022/12/18 04:53:06;;;;;;;;;;;-9.20;99.90;;;;;;5077947;28;19916;-78
2022/12/18 04:55:32;;;;;;;;;;;-9.20;99.90;;;;;;5076865;28;19912;-77
2022/12/18 04:57:57;;;;;;;;;;;-9.20;99.90;;;;;;5077882;28;19908;-78
2022/12/18 05:00:23;;;;;;;;;;;-9.20;99.90;;;;;;5077474;28;19916;-78
2022/12/18 05:02:48;;;;;;;;;;;-9.20;99.90;;;;;;5077432;28;19979;-78
2022/12/18 05:05:14;;;;;;;;;;;-9.20;99.90;;;;;;5076572;28;19915;-78
2022/12/18 05:07:40;;;;;;;;;;;-9.20;99.90;;;;;;5076235;28;19916;-78
2022/12/18 05:10:05;;;;;;;;;;;-9.20;99.90;;;;;;5077500;28;19913;-78
2022/12/18 05:12:31;;;;;;;;;;;-9.30;99.90;;;;;;5078703;28;19912;-78
2022/12/18 05:14:57;;;;;;;;;;;-9.40;99.90;;;;;;5070607;28;19909;-78
2022/12/18 05:17:22;;;;;;;;;;;-9.40;99.90;;;;;;5061297;28;19924;-78
2022/12/18 05:19:48;;;;;;;;;;;-9.50;99.90;;;;;;5076074;28;19974;-78
2022/12/18 05:22:13;;;;;;;;;;;-9.50;99.90;;;;;;5076257;28;19916;-78
2022/12/18 05:24:39;;;;;;;;;;;-9.50;99.90;;;;;;5076818;28;19916;-78
2022/12/18 05:27:04;;;;;;;;;;;-9.50;99.90;;;;;;5076399;28;19912;-78
2022/12/18 05:29:30;;;;;;;;;;;-9.50;99.90;;;;;;5067797;28;19956;-78
2022/12/18 05:31:55;;;;;;;;;;;-9.50;99.90;;;;;;5056584;28;19917;-78
2022/12/18 05:34:21;;;;;;;;;;;-9.50;99.90;;;;;;5075572;28;19908;-77
2022/12/18 05:36:46;;;;;;;;;;;-9.50;99.90;;;;;;5058560;28;19912;-78
2022/12/18 05:39:12;;;;;;;;;;;-9.50;99.90;;;;;;5058195;28;20409;-77
2022/12/18 05:41:38;;;;;;;;;;;-9.50;99.90;;;;;;5076258;28;20280;-77
2022/12/18 05:44:03;;;;;;;;;;;-9.50;99.90;;;;;;5075108;28;19916;-77
2022/12/18 05:46:29;;;;;;;;;;;-9.50;99.90;;;;;;5074884;28;20422;-77
2022/12/18 05:48:54;;;;;;;;;;;-9.50;99.90;;;;;;5075159;28;19909;-77
2022/12/18 05:51:21;;;;;;;;;;;-9.40;99.90;;;;;;5074251;28;19912;-77
2022/12/18 05:53:48;;;;;;;;;;;-9.40;99.90;;;;;;5075997;28;19916;-77
2022/12/18 05:56:15;;;;;;;;;;;-9.40;99.90;;;;;;5075056;28;19913;-78
2022/12/18 05:58:41;;;;;;;;;;;-9.40;99.90;;;;;;5074670;28;19948;-77
2022/12/18 06:01:11;;;;;;;;;;;-9.40;99.90;;;;;;5074628;28;19909;-77
2022/12/18 06:03:37;;;;;;;;;;;-9.40;99.90;;;;;;5074578;28;19959;-77
2022/12/18 06:06:03;;;;;;;;;;;-9.50;99.90;;;;;;5076108;28;20376;-77
2022/12/18 06:08:29;;;;;;;;;;;-9.50;99.90;;;;;;5074434;28;20307;-77
2022/12/18 06:10:54;;;;;;;;;;;-9.50;99.90;;;;;;5076119;28;19908;-78
2022/12/18 06:13:20;;;;;;;;;;;-9.60;99.90;;;;;;5075947;28;19912;-77
2022/12/18 06:15:46;;;;;;;;;;;-9.60;99.90;;;;;;5062052;28;20435;-77
2022/12/18 06:18:12;;;;;;;;;;;-9.60;99.90;;;;;;5066486;28;19991;-78
2022/12/18 06:20:39;;;;;;;;;;;-9.70;99.90;;;;;;5072848;28;19919;-77
2022/12/18 06:23:05;;;;;;;;;;;-9.70;99.90;;;;;;5057031;28;21440;-78
2022/12/18 06:25:30;;;;;;;;;;;-9.70;99.90;;;;;;5075684;28;19912;-78
2022/12/18 06:27:56;;;;;;;;;;;-9.70;99.90;;;;;;5076085;28;19958;-78
2022/12/18 06:30:22;;;;;;;;;;;-9.70;99.90;;;;;;5076593;28;19919;-77
2022/12/18 06:32:48;;;;;;;;;;;-9.70;99.90;;;;;;5075121;28;19913;-77
2022/12/18 06:35:14;;;;;;;;;;;-9.60;99.90;;;;;;5075785;28;20253;-77
2022/12/18 06:37:39;;;;;;;;;;;-9.60;99.90;;;;;;5072948;28;19935;-78
2022/12/18 06:40:05;;;;;;;;;;;-9.60;99.90;;;;;;5070782;28;19913;-77
2022/12/18 06:42:31;;;;;;;;;;;-9.60;99.90;;;;;;5059014;28;19912;-77
2022/12/18 06:44:57;;;;;;;;;;;-9.60;99.90;;;;;;5074416;28;19983;-77
2022/12/18 06:47:22;;;;;;;;;;;-9.60;99.90;;;;;;5075091;28;19920;-77
2022/12/18 06:49:48;;;;;;;;;;;-9.60;99.90;;;;;;5074247;28;19912;-78
2022/12/18 06:52:14;;;;;;;;;;;-9.60;99.90;;;;;;5073615;28;19913;-78
2022/12/18 06:54:39;;;;;;;;;;;-9.60;99.90;;;;;;5074201;28;19917;-77
2022/12/18 06:57:05;;;;;;;;;;;-9.70;99.90;;;;;;5075350;28;19920;-76
2022/12/18 06:59:31;;;;;;;;;;;-9.80;99.90;;;;;;5073356;28;19958;-76
2022/12/18 07:01:56;;;;;;;;;;;-9.80;99.90;;;;;;5073549;28;19919;-77
2022/12/18 07:04:22;;;;;;;;;;;-9.80;99.90;;;;;;5074451;28;20011;-77
2022/12/18 07:06:47;;;;;;;;;;;-9.80;99.90;;;;;;5074866;28;20007;-77
2022/12/18 07:09:13;;;;;;;;;;;-9.80;99.90;;;;;;5074885;28;19912;-76
2022/12/18 07:11:38;;;;;;;;;;;-9.80;99.90;;;;;;5056540;28;20121;-77
2022/12/18 07:14:04;;;;;;;;;;;-9.80;99.90;;;;;;5073331;28;19913;-76
2022/12/18 07:16:29;;;;;;;;;;;-9.70;99.90;;;;;;5054417;28;20011;-76
2022/12/18 07:18:55;;;;;;;;;;;-9.70;99.90;;;;;;5054090;28;19967;-76
2022/12/18 07:21:22;;;;;;;;;;;-9.70;99.90;;;;;;5054235;28;19962;-77
2022/12/18 07:23:48;;;;;;;;;;;-9.70;99.90;;;;;;5065838;28;19913;-77
2022/12/18 07:26:14;;;;;;;;;;;-9.70;99.90;;;;;;5072656;28;20368;-77
2022/12/18 07:28:41;;;;;;;;;;;-9.80;99.90;;;;;;5073929;28;19909;-77
2022/12/18 07:31:07;;;;;;;;;;;-9.90;99.90;;;;;;5074066;28;19916;-77
2022/12/18 07:33:33;;;;;;;;;;;-9.90;99.90;;;;;;5068635;28;19956;-77
2022/12/18 07:36:03;;;;;;;;;;;-9.90;99.90;;;;;;5052786;28;19962;-77
2022/12/18 07:38:28;;;;;;;;;;;-10.00;99.90;;;;;;5068747;28;19909;-77
2022/12/18 07:40:54;;;;;;;;;;;-10.00;99.90;;;;;;5063840;28;19920;-77
2022/12/18 07:43:19;;;;;;;;;;;-9.90;99.90;;;;;;5061842;28;19967;-77
2022/12/18 07:45:45;;;;;;;;;;;-9.90;99.90;;;;;;5066367;28;19924;-76
2022/12/18 07:48:10;;;;;;;;;;;-9.90;99.90;;;;;;5073371;28;19919;-76
2022/12/18 07:50:37;;;;;;;;;;;-9.80;99.90;;;;;;5069728;28;19912;-77
2022/12/18 07:53:04;;;;;;;;;;;-9.90;99.90;;;;;;5068192;28;19973;-77
2022/12/18 07:55:30;;;;;;;;;;;-9.90;99.90;;;;;;5072942;28;19909;-76
2022/12/18 07:57:56;;;;;;;;;;;-10.00;99.90;;;;;;5073414;28;19908;-76
2022/12/18 08:00:22;;;;;;;;;;;-10.00;99.90;;;;;;5055523;28;20049;-77
2022/12/18 08:02:47;;;;;;;;;;;-10.00;99.90;;;;;;5071987;28;19913;-77
2022/12/18 08:05:13;;;;;;;;;;;-10.00;99.90;;;;;;5072299;28;20056;-76
2022/12/18 08:07:39;;;;;;;;;;;-9.90;99.90;;;;;;5036598;23;19932;-67
2022/12/18 08:10:05;;;;;;;;;;;-9.80;99.90;;;;;;5013667;28;19965;-66
2022/12/18 08:12:30;;;;;;;;;;;-9.80;99.90;;;;;;5013824;28;19961;-66
2022/12/18 08:14:56;;;;;;;;;;;-9.70;99.90;;;;;;5016066;28;19914;-66
2022/12/18 08:17:21;;;;;;;;;;;-9.60;99.90;;;;;;5017472;28;20027;-66
2022/12/18 08:19:47;;;;;;;;;;;-9.60;99.90;;;;;;5017850;28;19921;-66
2022/12/18 08:22:13;;;;;;;;;;;-9.50;99.90;;;;;;5017352;28;19916;-66
2022/12/18 08:24:38;;;;;;;;;;;-9.50;99.90;;;;;;5017767;28;19921;-67
2022/12/18 08:27:04;;;;;;;;;;;-9.40;99.90;;;;;;5016073;28;20373;-66
2022/12/18 08:29:30;;;;;;;;;;;-9.20;99.90;;;;;;5017157;28;20376;-66
2022/12/18 08:31:55;;;;;;;;;;;-9.20;99.90;;;;;;5017232;28;19959;-66
2022/12/18 08:34:21;;;;;;;;;;;-9.10;99.90;;;;;;5016666;28;19940;-66
2022/12/18 08:36:46;;;;;;;;;;;-9.10;99.90;;;;;;5017130;28;19973;-66
2022/12/18 08:39:12;;;;;;;;;;;-9.10;99.90;;;;;;5017045;28;19913;-66
2022/12/18 08:41:37;;;;;;;;;;;-9.00;99.90;;;;;;5016971;28;19921;-66
2022/12/18 08:46:47;;;;;;;;;;;-9.00;99.90;;;;;;5017199;28;20435;-66
2022/12/18 08:49:12;;;;;;;;;;;-9.00;99.90;;;;;;5015782;28;19913;-66
2022/12/18 08:51:38;;;;;;;;;;;-8.90;99.90;;;;;;5017038;28;20395;-66
2022/12/18 08:54:04;;;;;;;;;;;-8.90;99.90;;;;;;5016969;28;20441;-66
2022/12/18 08:56:30;;;;;;;;;;;-9.00;99.90;;;;;;5017031;28;20012;-66
2022/12/18 08:58:56;;;;;;;;;;;-9.00;99.90;;;;;;5016752;28;19998;-66
2022/12/18 09:01:21;;;;;;;;;;;-8.90;99.90;;;;;;5016635;28;19913;-66
2022/12/18 09:03:50;;;;;;;;;;;-8.90;99.90;;;;;;5016802;28;19914;-66
2022/12/18 09:06:17;;;;;;;;;;;-8.80;99.90;;;;;;5016496;28;19941;-66
2022/12/18 09:08:45;;;;;;;;;;;-8.70;99.90;;;;;;5016785;28;20294;-66
2022/12/18 09:11:29;;;;;;;;;;;-8.60;99.90;;;;;;5016801;28;19921;-66
2022/12/18 09:13:55;;;;;;;;;;;-8.50;99.90;;;;;;5016891;28;20285;-66
2022/12/18 09:16:22;;;;;;;;;;;-8.50;99.90;;;;;;5016672;28;19910;-68
2022/12/18 09:18:48;;;;;;;;;;;-8.40;99.90;;;;;;5016404;28;20000;-68
2022/12/18 09:21:15;;;;;;;;;;;-8.30;99.90;;;;;;5016841;28;19948;-68
2022/12/18 09:23:40;;;;;;;;;;;-8.20;99.90;;;;;;5016444;28;20004;-69
2022/12/18 09:26:06;;;;;;;;;;;-8.10;99.90;;;;;;5015276;28;19991;-69
2022/12/18 09:28:32;;;;;;;;;;;-8.00;99.90;;;;;;5016560;28;20285;-69
2022/12/18 09:30:57;;;;;;;;;;;-7.90;99.90;;;;;;5016347;28;19916;-69
2022/12/18 09:33:23;;;;;;;;;;;-7.90;99.90;;;;;;5016343;28;19979;-69
2022/12/18 09:35:48;;;;;;;;;;;-7.80;99.90;;;;;;5016837;28;20413;-69
2022/12/18 09:38:35;;;;;;;;;;;-7.80;99.90;;;;;;5015999;28;20377;-69
2022/12/18 09:41:19;;;;;;;;;;;-7.70;99.90;;;;;;5016340;28;19913;-69
2022/12/18 09:44:02;;;;;;;;;;;-7.60;99.90;;;;;;5015829;28;19913;-68
2022/12/18 09:46:55;;;;;;;;;;;-7.50;99.90;;;;;;5016254;28;19910;-69
2022/12/18 09:49:24;;;;;;;;;;;-7.30;99.90;;;;;;5015841;28;19972;-69
2022/12/18 09:51:56;;;;;;;;;;;-7.20;99.90;;;;;;5015991;28;20000;-69
2022/12/18 09:54:37;;;;;;;;;;;-7.10;99.90;;;;;;5015085;28;19914;-69
2022/12/18 09:57:05;;;;;;;;;;;-7.00;99.90;;;;;;5016158;28;19938;-69
2022/12/18 09:59:35;;;;;;;;;;;-6.90;99.90;;;;;;5016103;28;19956;-67
2022/12/18 10:02:13;;;;;;;;;;;-6.90;99.90;;;;;;5016009;28;19909;-67
2022/12/18 10:04:39;;;;;;;;;;;-6.80;99.90;;;;;;5015979;28;19959;-67
2022/12/18 10:07:11;;;;;;;;;;;-6.70;99.90;;;;;;5014398;28;19922;-67
2022/12/18 10:09:36;;;;;;;;;;;-6.60;99.90;;;;;;5015573;28;19909;-67
2022/12/18 10:12:23;;;;;;;;;;;-6.50;99.90;;;;;;5015876;28;19932;-67
2022/12/18 10:15:00;;;;;;;;;;;-6.40;99.90;;;;;;5015886;28;20281;-67
2022/12/18 10:17:42;;;;;;;;;;;-6.40;99.90;;;;;;5015456;28;19916;-67
2022/12/18 10:20:26;;;;;;;;;;;-6.30;99.90;;;;;;5015466;28;19910;-67
2022/12/18 10:23:00;;;;;;;;;;;-6.20;99.90;;;;;;5015328;28;19910;-67
2022/12/18 10:25:26;;;;;;;;;;;-6.10;99.90;;;;;;5015692;28;20440;-67
2022/12/18 10:27:57;;;;;;;;;;;-6.10;99.90;;;;;;5015457;28;19909;-67
2022/12/18 10:30:24;;;;;;;;;;;-6.00;99.90;;;;;;5015552;28;20436;-67
2022/12/18 10:32:50;;;;;;;;;;;-5.90;99.90;;;;;;4997569;28;19913;-67
2022/12/18 10:35:25;;;;;;;;;;;-5.80;99.90;;;;;;5013897;28;20332;-67
2022/12/18 10:38:06;;;;;;;;;;;-5.70;99.90;;;;;;5013451;28;19914;-67
2022/12/18 10:40:31;;;;;;;;;;;-5.60;99.90;;;;;;5015587;28;20003;-67
2022/12/18 10:43:14;;;;;;;;;;;-5.50;99.90;;;;;;5014945;28;20360;-67
2022/12/18 10:45:40;;;;;;;;;;;-5.40;99.90;;;;;;5015499;28;19909;-67
2022/12/18 10:48:17;;;;;;;;;;;-5.30;99.90;;;;;;5014845;28;20010;-67
2022/12/18 10:50:46;;;;;;;;;;;-5.20;99.90;;;;;;5015178;28;19932;-67
2022/12/18 10:53:14;;;;;;;;;;;-5.10;99.90;;;;;;5014826;28;19963;-67
2022/12/18 10:55:44;;;;;;;;;;;-5.00;99.90;;;;;;5014808;28;19920;-67
2022/12/18 10:58:26;;;;;;;;;;;-5.00;99.90;;;;;;5014720;28;20481;-67
2022/12/18 11:01:03;;;;;;;;;;;-4.90;99.90;;;;;;5015012;28;19910;-67
2022/12/18 11:03:38;;;;;;;;;;;-4.80;99.90;;;;;;5014714;28;20339;-67
2022/12/18 11:06:17;;;;;;;;;;;-4.70;99.90;;;;;;5014563;28;19918;-67
2022/12/18 11:08:44;;;;;;;;;;;-4.60;99.90;;;;;;5014555;28;20361;-67
2022/12/18 11:11:19;;;;;;;;;;;-4.50;99.90;;;;;;5014570;28;20339;-67
2022/12/18 11:13:56;;;;;;;;;;;-4.50;99.90;;;;;;5015081;28;20350;-67
2022/12/18 11:16:23;;;;;;;;;;;-4.40;99.90;;;;;;5014786;28;19909;-67
2022/12/18 11:18:49;;;;;;;;;;;-4.30;99.90;;;;;;5015311;28;20286;-67
2022/12/18 11:21:14;;;;;;;;;;;-4.30;99.90;;;;;;5014366;28;19913;-67
2022/12/18 11:23:51;;;;;;;;;;;-4.20;99.90;;;;;;5014303;28;19929;-67
2022/12/18 11:26:17;;;;;;;;;;;-4.10;99.90;;;;;;5014334;28;19910;-67
2022/12/18 11:29:01;;;;;;;;;;;-4.00;99.90;;;;;;5014249;28;19917;-67
2022/12/18 11:31:27;;;;;;;;;;;-4.00;99.90;;;;;;5013022;28;19963;-67
2022/12/18 11:34:05;;;;;;;;;;;-4.00;99.90;;;;;;5014512;28;19910;-67
2022/12/18 11:36:51;;;;;;;;;;;-3.90;99.90;;;;;;5014468;28;20052;-67
2022/12/18 11:39:29;;;;;;;;;;;-3.80;99.90;;;;;;5014062;28;19910;-67
2022/12/18 11:42:11;;;;;;;;;;;-3.80;99.90;;;;;;5014143;28;19948;-67
2022/12/18 11:44:47;;;;;;;;;;;-3.70;99.90;;;;;;5012813;28;20001;-67
2022/12/18 11:47:26;;;;;;;;;;;-3.60;99.90;;;;;;5014344;28;19964;-68
2022/12/18 11:49:52;;;;;;;;;;;-3.60;99.90;;;;;;5013388;28;19909;-68
2022/12/18 11:52:21;;;;;;;;;;;-3.50;99.90;;;;;;5012769;28;19914;-68
2022/12/18 11:54:46;;;;;;;;;;;-3.40;99.90;;;;;;5014068;28;19961;-68
2022/12/18 11:57:24;;;;;;;;;;;-3.40;99.90;;;;;;5014356;28;19963;-68
2022/12/18 11:59:49;;;;;;;;;;;-3.20;99.90;;;;;;5014003;28;19916;-68
2022/12/18 12:02:21;;;;;;;;;;;-3.20;99.90;;;;;;5014045;28;20004;-68
2022/12/18 12:04:52;;;;;;;;;;;-3.10;99.90;;;;;;5013830;28;19913;-68
2022/12/18 12:07:41;;;;;;;;;;;-3.00;99.90;;;;;;5013868;28;19917;-69
2022/12/18 12:10:15;;;;;;;;;;;-2.90;99.90;;;;;;5014405;28;19921;-68
2022/12/18 12:12:47;;;;;;;;;;;-2.80;99.90;;;;;;5014051;28;19909;-69
2022/12/18 12:15:17;;;;;;;;;;;-2.80;99.90;;;;;;5014190;28;19909;-68
2022/12/18 12:17:49;;;;;;;;;;;-2.70;99.90;;;;;;5013834;28;19909;-68
2022/12/18 12:20:14;;;;;;;;;;;-2.60;99.90;;;;;;5014168;28;20281;-69
2022/12/18 12:22:40;;;;;;;;;;;-2.60;99.90;;;;;;5012599;28;19920;-69
2022/12/18 12:25:31;;;;;;;;;;;-2.50;99.90;;;;;;5013643;28;19913;-69
2022/12/18 12:28:06;;;;;;;;;;;-2.40;99.90;;;;;;5014218;28;19909;-69
2022/12/18 12:30:40;;;;;;;;;;;-2.40;99.90;;;;;;5013565;28;19916;-69
2022/12/18 12:33:12;;;;;;;;;;;-2.30;99.90;;;;;;5013890;28;19917;-69
2022/12/18 12:36:06;;;;;;;;;;;-2.20;99.90;;;;;;5013597;28;20428;-69
2022/12/18 12:38:45;;;;;;;;;;;-2.20;99.90;;;;;;5029234;28;19909;-69
2022/12/18 12:44:02;;;;;;;;;;;-2.00;99.90;;;;;;5013979;28;19924;-69
2022/12/18 12:46:29;;;;;;;;;;;-1.90;99.90;;;;;;5013804;28;19963;-69
2022/12/18 12:49:00;;;;;;;;;;;-1.80;99.90;;;;;;5013611;28;19910;-67
2022/12/18 12:51:36;;;;;;;;;;;-1.80;99.90;;;;;;5013816;28;19909;-68
2022/12/18 12:54:04;;;;;;;;;;;-1.70;99.90;;;;;;5013512;28;19916;-67
2022/12/18 12:56:38;;;;;;;;;;;-1.60;99.90;;;;;;5012460;28;19949;-68
2022/12/18 12:59:11;;;;;;;;;;;-1.60;99.90;;;;;;5012191;28;19916;-68
2022/12/18 13:01:39;;;;;;;;;;;-1.50;99.90;;;;;;5016967;28;19909;-67
2022/12/18 13:04:10;;;;;;;;;;;-1.50;99.90;;;;;;5015610;28;20366;-68
2022/12/18 13:06:39;;;;;;;;;;;-1.40;99.90;;;;;;5016775;28;19918;-68
2022/12/18 13:09:05;;;;;;;;;;;-1.40;99.90;;;;;;5016993;28;19916;-68
2022/12/18 13:14:27;;;;;;;;;;;-1.50;99.90;;;;;;5011333;28;19936;-68
2022/12/18 13:17:12;;;;;;;;;;;-1.50;99.90;;;;;;5016692;28;19932;-68
2022/12/18 13:19:38;;;;;;;;;;;-1.60;99.90;;;;;;5016423;28;19909;-68
2022/12/18 13:22:03;;;;;;;;;;;-1.60;99.90;;;;;;5016636;28;19913;-68
2022/12/18 13:24:30;;;;;;;;;;;-1.70;99.90;;;;;;5016453;28;19924;-68
2022/12/18 13:26:56;;;;;;;;;;;-1.70;99.90;;;;;;5016711;28;19909;-68
2022/12/18 13:29:42;;;;;;;;;;;-1.70;99.90;;;;;;5016422;28;19920;-68
2022/12/18 13:32:19;;;;;;;;;;;-1.70;99.90;;;;;;5016089;28;19992;-67
2022/12/18 13:34:45;;;;;;;;;;;-1.70;99.90;;;;;;5017256;28;19913;-69
2022/12/18 13:37:29;;;;;;;;;;;-1.70;99.90;;;;;;5016858;28;19924;-70
2022/12/18 13:39:55;;;;;;;;;;;-1.70;99.90;;;;;;5016294;28;19916;-69
2022/12/18 13:45:26;;;;;;;;;;;-1.70;99.90;;;;;;5016440;28;19920;-69
2022/12/18 13:47:52;;;;;;;;;;;-1.70;99.90;;;;;;5016023;28;20388;-69
2022/12/18 13:50:24;;;;;;;;;;;-1.60;99.90;;;;;;5014770;28;19913;-70
2022/12/18 13:52:50;;;;;;;;;;;-1.70;99.90;;;;;;5016313;28;19913;-69
2022/12/18 13:55:18;;;;;;;;;;;-1.70;99.90;;;;;;5016129;28;19916;-72
2022/12/18 13:57:43;;;;;;;;;;;-1.80;99.90;;;;;;5015911;28;19957;-72
2022/12/18 14:00:21;;;;;;;;;;;-1.80;99.90;;;;;;5016099;28;19952;-73
2022/12/18 14:02:46;;;;;;;;;;;-1.80;99.90;;;;;;5016289;28;20004;-73
2022/12/18 14:05:32;;;;;;;;;;;-1.80;99.90;;;;;;5015867;28;20344;-73
2022/12/18 14:08:04;;;;;;;;;;;-1.80;99.90;;;;;;5015796;28;19922;-72
2022/12/18 14:10:30;;;;;;;;;;;-1.80;99.90;;;;;;5015992;28;19920;-72
2022/12/18 14:12:56;;;;;;;;;;;-1.80;99.90;;;;;;5015332;28;20004;-73
2022/12/18 14:15:24;;;;;;;;;;;-1.90;99.90;;;;;;5015666;28;19909;-73
2022/12/18 14:17:54;;;;;;;;;;;-1.90;99.90;;;;;;5015733;28;19916;-72
2022/12/18 14:20:20;;;;;;;;;;;-1.90;99.90;;;;;;5024895;23;19933;-78
2022/12/18 14:22:47;;;;;;;;;;;-2.00;99.90;;;;;;5006455;28;19918;-78
2022/12/18 14:25:12;;;;;;;;;;;-2.10;99.90;;;;;;5015998;28;20460;-78
2022/12/18 14:28:03;;;;;;;;;;;-2.10;99.90;;;;;;5030061;28;20469;-78
2022/12/18 14:30:36;;;;;;;;;;;-2.20;99.90;;;;;;5007786;28;19914;-79
2022/12/18 14:33:02;;;;;;;;;;;-2.20;99.90;;;;;;5011627;28;20297;-80
2022/12/18 14:35:28;;;;;;;;;;;-2.20;99.90;;;;;;4997055;28;19910;-79
2022/12/18 14:37:53;;;;;;;;;;;-2.20;99.90;;;;;;4978659;28;20400;-79
2022/12/18 14:40:19;;;;;;;;;;;-2.20;99.90;;;;;;4995080;28;20329;-79